Time;durP1;ratioP1;P1;durP2;ratioP2;P2;SDS_P1;SDS_P2;PMS_P1;PMS_P2;Temp;Humidity;BMP_temperature;BMP_pressure;BME280_temperature;BME280_humidity;BME280_pressure;Samples;Min_cycle;Max_cycle;Signal;HPM_P1;HPM_P2
2022/04/18 00:01:55;;;;;;;38.50;17.10;;;;;;;0.46;61.85;99037.05;432616;1271;95267;-43
2022/04/18 00:12:04;;;;;;;40.30;19.30;;;;;;;0.54;62.25;99027.70;432690;1271;109654;-42
2022/04/18 00:22:10;;;;;;;42.10;19.90;;;;;;;0.51;62.54;99017.30;432644;1271;107920;-43
2022/04/18 00:32:16;;;;;;;29.60;15.10;;;;;;;0.33;62.30;99012.01;432765;1271;108768;-41
2022/04/18 00:42:23;;;;;;;25.40;12.10;;;;;;;0.11;62.56;99000.55;432774;1271;96182;-41
2022/04/18 00:52:32;;;;;;;21.30;11.20;;;;;;;0.08;62.93;98982.53;432670;1271;95612;-41
2022/04/18 01:02:39;;;;;;;28.90;15.00;;;;;;;0.12;62.98;98972.44;432499;1271;109717;-43
2022/04/18 01:12:45;;;;;;;47.40;23.70;;;;;;;0.19;63.25;98958.84;432692;1271;108735;-45
2022/04/18 01:22:54;;;;;;;62.20;31.30;;;;;;;0.25;63.34;98947.61;433459;1264;108963;-41
2022/04/18 01:33:02;;;;;;;66.10;30.20;;;;;;;0.37;63.67;98936.66;432392;1274;95288;-42
2022/04/18 01:43:09;;;;;;;70.00;33.70;;;;;;;0.46;63.70;98927.94;432352;1274;109750;-43
2022/04/18 01:53:17;;;;;;;80.60;38.30;;;;;;;0.58;64.37;98912.30;432455;1273;109302;-44
2022/04/18 02:03:24;;;;;;;74.60;37.60;;;;;;;0.49;64.39;98906.91;432421;1274;95690;-43
2022/04/18 02:13:32;;;;;;;70.80;34.90;;;;;;;0.28;64.67;98903.11;432502;1274;95433;-45
2022/04/18 02:23:40;;;;;;;65.00;31.70;;;;;;;0.12;64.75;98894.53;432425;1274;109722;-41
2022/04/18 02:33:47;;;;;;;58.90;27.90;;;;;;;0.01;64.83;98886.82;432311;1274;109638;-42
2022/04/18 02:43:54;;;;;;;39.50;21.30;;;;;;;-0.00;65.32;98879.66;432444;1274;108756;-43
2022/04/18 02:54:01;;;;;;;35.20;16.70;;;;;;;0.26;65.27;98873.39;432350;1274;96151;-41
2022/04/18 03:04:08;;;;;;;36.80;20.20;;;;;;;0.49;65.23;98870.40;432414;1272;109816;-43
2022/04/18 03:14:15;;;;;;;49.60;22.90;;;;;;;0.52;65.59;98865.23;432359;1274;108793;-42
2022/04/18 03:24:23;;;;;;;45.50;20.90;;;;;;;0.59;65.61;98859.81;432481;1274;108886;-45
2022/04/18 03:34:30;;;;;;;35.10;18.80;;;;;;;0.60;66.07;98852.36;432414;1274;95498;-43
2022/04/18 04:04:53;;;;;;;37.80;19.40;;;;;;;0.76;65.80;98836.19;432847;1271;108831;-42
2022/04/18 04:15:00;;;;;;;27.00;15.70;;;;;;;0.86;65.58;98832.83;432753;1271;108975;-42
2022/04/18 04:25:07;;;;;;;27.70;14.40;;;;;;;1.17;66.00;98830.77;432906;1271;95694;-45
2022/04/18 04:35:14;;;;;;;37.50;20.70;;;;;;;1.41;65.50;98824.54;432966;1270;109707;-43
2022/04/18 04:45:21;;;;;;;49.80;23.20;;;;;;;1.59;65.39;98824.66;432882;1271;108900;-41
2022/04/18 04:55:28;;;;;;;43.60;20.70;;;;;;;1.79;65.17;98828.30;432869;1271;108912;-40
2022/04/18 05:05:36;;;;;;;31.40;17.90;;;;;;;2.05;65.04;98831.33;432923;1271;95394;-44
2022/04/18 05:15:43;;;;;;;33.40;19.20;;;;;;;2.22;64.74;98829.48;432925;1271;96136;-39
2022/04/18 05:25:51;;;;;;;40.90;20.60;;;;;;;2.89;64.72;98829.80;432890;1271;109910;-45
2022/04/18 05:35:58;;;;;;;33.60;18.30;;;;;;;3.41;64.12;98832.00;432882;1271;108724;-44
2022/04/18 05:46:05;;;;;;;38.60;18.60;;;;;;;3.73;63.85;98831.30;432874;1270;106799;-45
2022/04/18 05:56:12;;;;;;;33.20;18.80;;;;;;;5.46;63.54;98828.64;433126;1271;96357;-41
2022/04/18 06:06:19;;;;;;;40.40;21.00;;;;;;;6.72;61.75;98820.87;432908;1271;95340;-44
2022/04/18 06:16:26;;;;;;;39.40;21.20;;;;;;;6.74;60.20;98828.31;430030;1270;3779755;-44
2022/04/18 06:26:34;;;;;;;34.50;20.90;;;;;;;7.76;59.76;98814.33;432915;1271;108815;-42
2022/04/18 06:36:41;;;;;;;32.80;19.20;;;;;;;8.12;58.45;98813.12;432826;1270;108896;-44
2022/04/18 06:46:48;;;;;;;30.40;19.60;;;;;;;7.96;58.18;98814.15;432955;1271;95683;-41
2022/04/18 06:57:02;;;;;;;34.60;18.90;;;;;;;8.52;56.84;98813.80;432950;1271;95681;-40
2022/04/18 07:07:09;;;;;;;25.50;15.70;;;;;;;9.17;56.39;98807.00;432866;1271;108057;-40
2022/04/18 07:17:17;;;;;;;22.70;14.50;;;;;;;10.15;56.02;98793.17;432810;1271;108796;-46
2022/04/18 07:27:24;;;;;;;13.80;8.40;;;;;;;11.01;54.68;98787.67;432764;1271;108940;-44
2022/04/18 07:37:31;;;;;;;12.70;8.10;;;;;;;11.08;51.65;98784.05;432831;1271;96051;-42
2022/04/18 07:47:38;;;;;;;9.00;6.50;;;;;;;9.96;48.93;98789.02;432854;1271;110302;-44
2022/04/18 07:57:46;;;;;;;11.10;6.70;;;;;;;9.31;48.22;98791.05;432971;1270;107398;-44
2022/04/18 08:07:53;;;;;;;4.20;3.10;;;;;;;9.54;45.60;98786.67;432842;1271;108661;-42
2022/04/18 08:18:00;;;;;;;6.20;4.00;;;;;;;9.43;42.80;98787.33;432701;1271;95646;-44
2022/04/18 08:28:05;;;;;;;8.30;4.70;;;;;;;10.00;42.66;98763.81;432942;1271;95321;-45
2022/04/18 08:38:12;;;;;;;11.40;5.00;;;;;;;9.63;41.98;98763.98;432823;1271;110541;-41
2022/04/18 08:58:43;;;;;;;4.10;3.50;;;;;;;9.04;40.28;98768.03;432599;1271;108854;-43
2022/04/18 09:08:56;;;;;;;4.10;2.90;;;;;;;8.74;38.94;98761.34;432816;1271;96167;-45
2022/04/18 09:19:09;;;;;;;3.80;2.90;;;;;;;8.87;38.29;98750.69;432979;1271;96390;-45
2022/04/18 09:29:18;;;;;;;7.10;3.60;;;;;;;9.55;37.56;98742.40;432728;1270;108589;-44
2022/04/18 09:49:36;;;;;;;6.50;4.70;;;;;;;10.28;36.34;98734.58;432880;1271;96566;-46
2022/04/18 09:59:44;;;;;;;6.20;4.00;;;;;;;10.27;36.00;98726.27;433064;1271;95478;-45
2022/04/18 10:09:50;;;;;;;5.50;4.30;;;;;;;9.81;36.06;98713.55;432904;1271;110327;-47
2022/04/18 10:19:58;;;;;;;5.80;4.30;;;;;;;9.93;36.90;98704.17;432920;1271;108760;-44
2022/04/18 10:30:07;;;;;;;5.50;4.30;;;;;;;9.50;36.35;98700.96;432834;1271;108666;-42
2022/04/18 10:40:17;;;;;;;;;;;;;;;9.55;37.63;98689.70;432623;1271;96140;-41
2022/04/18 10:50:24;;;;;;;7.60;4.40;;;;;;;10.12;37.97;98672.23;432726;1271;108698;-43
2022/04/18 11:00:45;;;;;;;5.20;4.00;;;;;;;10.04;37.88;98665.01;432553;1271;108221;-45
2022/04/18 11:10:54;;;;;;;5.40;3.60;;;;;;;10.24;36.98;98652.16;432740;1271;98003;-40
2022/04/18 11:21:01;;;;;;;5.70;3.60;;;;;;;10.70;36.81;98648.61;432634;1271;110877;-46
2022/04/18 11:31:18;;;;;;;4.50;3.30;;;;;;;10.90;35.98;98636.11;432542;1270;108524;-44
2022/04/18 11:41:29;;;;;;;8.60;3.90;;;;;;;10.69;36.34;98637.58;432542;1271;97326;-42
2022/04/18 12:12:26;;;;;;;5.60;3.80;;;;;;;10.63;36.85;98601.00;432815;1271;97913;-45
2022/04/18 12:22:33;;;;;;;5.70;3.50;;;;;;;10.88;36.48;98592.95;432828;1270;109052;-44
2022/04/18 12:32:41;;;;;;;4.30;3.50;;;;;;;10.40;36.14;98582.84;432898;1269;96677;-41
2022/04/18 12:52:56;;;;;;;5.50;3.60;;;;;;;10.84;35.95;98555.77;432906;1271;108846;-43
2022/04/18 13:03:05;;;;;;;4.50;3.70;;;;;;;10.74;36.13;98544.77;432871;1270;97949;-45
2022/04/18 13:13:15;;;;;;;4.40;3.50;;;;;;;10.80;36.05;98540.23;432907;1270;110477;-45
2022/04/18 13:23:23;;;;;;;5.30;3.70;;;;;;;10.73;36.17;98531.48;432839;1271;108496;-41
2022/04/18 13:33:31;;;;;;;4.70;3.20;;;;;;;10.56;35.68;98524.52;432884;1270;97903;-47
2022/04/18 13:43:38;;;;;;;5.70;3.50;;;;;;;10.18;35.60;98520.42;432760;1269;111076;-41
2022/04/18 13:53:45;;;;;;;6.70;3.20;;;;;;;10.51;35.59;98506.69;432746;1270;108969;-42
2022/04/18 14:03:54;;;;;;;6.40;3.40;;;;;;;10.33;34.78;98501.30;432758;1271;97930;-44
2022/04/18 14:14:01;;;;;;;4.70;2.90;;;;;;;10.09;35.02;98494.55;432860;1269;111115;-44
2022/04/18 14:24:08;;;;;;;5.00;3.60;;;;;;;10.20;35.76;98482.89;432794;1269;108735;-43
2022/04/18 14:34:16;;;;;;;4.60;2.90;;;;;;;10.10;35.39;98468.13;432784;1269;97501;-41
2022/04/18 14:44:23;;;;;;;4.40;2.80;;;;;;;10.11;35.21;98465.02;432915;1270;110901;-43
2022/04/18 14:54:31;;;;;;;5.90;2.80;;;;;;;9.73;35.42;98455.71;432847;1269;109300;-43
2022/04/18 15:04:38;;;;;;;3.30;2.70;;;;;;;9.93;36.18;98446.96;432960;1271;97919;-45
2022/04/18 15:14:46;;;;;;;3.50;2.30;;;;;;;10.15;35.69;98436.20;432748;1269;111700;-43
2022/04/18 15:24:53;;;;;;;2.90;2.20;;;;;;;9.84;35.77;98437.48;432686;1270;109020;-41
2022/04/18 15:45:05;;;;;;;3.80;2.50;;;;;;;9.57;36.33;98426.45;432907;1271;111069;-46
2022/04/18 15:55:11;;;;;;;4.10;2.20;;;;;;;9.59;36.58;98422.42;433130;1269;108983;-43
2022/04/18 16:05:18;;;;;;;4.10;2.10;;;;;;;9.61;36.83;98418.13;433154;1270;97900;-42
2022/04/18 16:15:25;;;;;;;6.50;2.00;;;;;;;9.38;36.66;98414.91;433257;1270;111110;-41
2022/04/18 16:25:34;;;;;;;8.70;2.60;;;;;;;9.09;36.88;98413.45;433265;1270;108835;-42
2022/04/18 16:55:58;;;;;;;5.40;2.80;;;;;;;8.98;38.02;98412.67;433251;1271;108856;-42
2022/04/18 17:06:06;;;;;;;6.10;3.70;;;;;;;8.90;38.27;98414.16;433286;1271;108755;-45
2022/04/18 17:16:12;;;;;;;9.30;3.00;;;;;;;8.76;38.42;98416.80;433239;1269;97929;-43
2022/04/18 17:26:20;;;;;;;11.60;4.10;;;;;;;8.55;38.78;98423.02;433073;1270;111098;-46
2022/04/18 17:36:27;;;;;;;11.60;3.50;;;;;;;8.36;39.30;98422.33;432716;1270;108780;-42
2022/04/18 17:46:35;;;;;;;9.10;3.70;;;;;;;8.21;39.78;98428.14;432663;1270;108856;-41
2022/04/18 17:56:43;;;;;;;13.80;4.10;;;;;;;8.05;40.25;98424.88;432581;1270;96666;-44
2022/04/18 18:06:51;;;;;;;11.20;5.40;;;;;;;7.81;40.31;98419.88;432746;1270;109510;-46
2022/04/18 18:16:58;;;;;;;14.40;6.60;;;;;;;7.60;40.83;98420.06;432008;1270;999248;-42
2022/04/18 18:27:04;;;;;;;11.10;4.90;;;;;;;7.40;41.31;98420.23;432561;1270;108786;-42
2022/04/18 18:37:11;;;;;;;13.00;5.00;;;;;;;7.22;41.77;98421.33;432691;1271;96626;-41
2022/04/18 18:47:19;;;;;;;13.60;6.00;;;;;;;6.95;42.54;98417.56;432608;1270;110247;-44
2022/04/18 18:57:26;;;;;;;10.60;5.40;;;;;;;6.76;42.79;98409.83;432574;1270;108297;-45
2022/04/18 19:07:33;;;;;;;20.40;9.10;;;;;;;6.54;43.40;98402.18;432612;1270;108667;-46
2022/04/18 19:28:04;;;;;;;72.30;33.20;;;;;;;6.06;45.27;98387.48;432688;1270;97857;-46
2022/04/18 19:38:11;;;;;;;84.30;33.10;;;;;;;5.83;45.89;98378.44;432571;1271;111253;-44
2022/04/18 19:48:19;;;;;;;70.50;27.40;;;;;;;5.61;46.60;98368.48;433177;1270;108098;-44
2022/04/18 20:08:34;;;;;;;52.10;22.00;;;;;;;5.37;47.97;98351.28;433172;1269;97982;-43
2022/04/18 20:18:41;;;;;;;35.20;15.00;;;;;;;5.27;48.34;98336.19;433106;1269;111406;-41
2022/04/18 20:28:48;;;;;;;32.80;14.20;;;;;;;5.20;47.87;98326.79;433382;1269;108618;-41
2022/04/18 20:38:53;;;;;;;42.70;18.40;;;;;;;5.09;47.91;98322.52;433166;1271;97932;-41
2022/04/18 20:59:10;;;;;;;56.20;22.00;;;;;;;4.84;48.81;98311.58;433149;1269;110908;-41
2022/04/18 21:09:18;;;;;;;47.90;19.30;;;;;;;4.72;48.69;98305.31;433102;1270;108933;-47
2022/04/18 21:19:25;;;;;;;43.60;19.90;;;;;;;4.68;48.99;98299.30;433227;1269;108791;-45
2022/04/18 21:29:33;;;;;;;50.20;22.00;;;;;;;4.65;49.20;98286.41;433325;1269;97015;-43
2022/04/18 21:39:40;;;;;;;42.60;19.50;;;;;;;4.61;49.28;98276.05;433172;1269;97998;-42
2022/04/18 21:49:46;;;;;;;35.10;16.90;;;;;;;4.60;49.06;98262.15;433183;1269;111336;-44
2022/04/18 21:59:53;;;;;;;36.60;15.80;;;;;;;4.63;49.13;98249.59;433325;1269;108804;-43
2022/04/18 22:10:00;;;;;;;31.50;13.70;;;;;;;4.66;49.07;98238.70;433253;1270;108913;-41
2022/04/18 22:30:34;;;;;;;22.30;10.50;;;;;;;4.61;49.01;98211.39;433320;1269;111129;-43
2022/04/18 22:40:42;;;;;;;33.60;16.00;;;;;;;4.64;48.89;98204.62;433142;1271;108989;-42
2022/04/18 22:50:49;;;;;;;76.00;31.30;;;;;;;4.59;49.63;98197.02;433234;1270;108836;-44
2022/04/18 23:00:56;;;;;;;110.50;42.10;;;;;;;4.55;50.10;98188.92;433184;1271;96686;-42
2022/04/18 23:11:03;;;;;;;104.00;44.20;;;;;;;4.56;50.13;98167.95;433205;1271;111109;-43
2022/04/18 23:21:10;;;;;;;81.20;33.80;;;;;;;4.46;50.49;98154.28;432547;1271;108822;-41
2022/04/18 23:31:17;;;;;;;45.50;19.40;;;;;;;4.34;50.76;98128.27;432517;1271;109531;-45
